Time;durP1;ratioP1;P1;durP2;ratioP2;P2;SDS_P1;SDS_P2;PMS_P1;PMS_P2;Temp;Humidity;BMP_temperature;BMP_pressure;BME280_temperature;BME280_humidity;BME280_pressure;Samples;Min_cycle;Max_cycle;Signal;HPM_P1;HPM_P2
2022/07/14 00:02:18;;;;;;;2.38;0.80;;;;;;;16.56;93.97;101780.22;6244711;28;20053;-80
2022/07/14 00:05:20;;;;;;;3.45;0.90;;;;;;;16.51;94.49;101782.31;6247384;28;20052;-79
2022/07/14 00:08:22;;;;;;;6.25;1.30;;;;;;;16.43;95.37;101781.94;6247242;28;20041;-80
2022/07/14 00:11:23;;;;;;;4.40;0.98;;;;;;;16.46;95.65;101784.41;6246939;28;20045;-80
2022/07/14 00:14:24;;;;;;;6.35;1.20;;;;;;;16.49;95.99;101776.25;6246996;28;20045;-79
2022/07/14 00:17:27;;;;;;;3.88;0.93;;;;;;;16.51;95.62;101776.16;6245302;28;20041;-80
2022/07/14 00:20:28;;;;;;;3.90;1.13;;;;;;;16.32;94.79;101779.09;6246725;28;20703;-80
2022/07/14 00:23:30;;;;;;;5.35;1.10;;;;;;;16.16;96.72;101774.69;6247177;28;20041;-80
2022/07/14 00:26:31;;;;;;;11.48;2.88;;;;;;;16.11;98.20;101783.88;6247040;28;20049;-79
2022/07/14 00:29:34;;;;;;;10.30;1.52;;;;;;;16.04;98.05;101778.09;6247260;28;20052;-80
2022/07/14 00:32:37;;;;;;;2.83;0.73;;;;;;;16.03;99.27;101768.41;6246520;28;20502;-80
2022/07/14 00:35:38;;;;;;;2.13;0.93;;;;;;;16.03;99.02;101762.25;6247215;28;20503;-80
2022/07/14 00:38:40;;;;;;;2.15;0.90;;;;;;;16.01;99.87;101766.81;6246829;28;20049;-80
2022/07/14 00:41:41;;;;;;;2.45;0.63;;;;;;;15.98;100.00;101762.53;6246513;28;20393;-80
2022/07/14 00:44:42;;;;;;;2.72;0.75;;;;;;;16.11;100.00;101770.63;6246906;28;20045;-80
2022/07/14 00:47:47;;;;;;;4.90;1.10;;;;;;;16.11;100.00;101770.63;6246809;28;20072;-80
2022/07/14 00:50:49;;;;;;;8.70;1.88;;;;;;;16.05;100.00;101763.03;6246685;28;20501;-80
2022/07/14 00:53:52;;;;;;;4.30;0.98;;;;;;;16.07;100.00;101767.28;6246531;28;20042;-80
2022/07/14 00:56:53;;;;;;;2.33;0.68;;;;;;;15.98;100.00;101776.66;6247045;28;20053;-80
2022/07/14 00:59:55;;;;;;;2.25;0.73;;;;;;;16.03;100.00;101771.06;6246397;28;20409;-80
2022/07/14 01:02:58;;;;;;;4.13;1.00;;;;;;;15.92;100.00;101769.06;6245901;28;20056;-80
2022/07/14 01:05:59;;;;;;;3.40;1.08;;;;;;;15.91;100.00;101762.06;6243583;28;20056;-81
2022/07/14 01:09:00;;;;;;;2.65;0.90;;;;;;;15.92;100.00;101766.41;6246794;28;20065;-80
2022/07/14 01:12:02;;;;;;;6.65;1.48;;;;;;;15.93;100.00;101748.72;6246186;28;20057;-80
2022/07/14 01:15:04;;;;;;;4.15;1.27;;;;;;;15.93;100.00;101760.16;6246358;28;20041;-80
2022/07/14 01:18:06;;;;;;;1.75;0.50;;;;;;;15.89;100.00;101758.63;6246469;28;20056;-80
2022/07/14 01:21:09;;;;;;;1.85;0.90;;;;;;;15.91;100.00;101756.75;6246228;28;20053;-80
2022/07/14 01:24:10;;;;;;;11.60;1.00;;;;;;;15.85;100.00;101754.50;6248368;28;20417;-81
2022/07/14 01:27:12;;;;;;;6.47;1.10;;;;;;;15.81;100.00;101758.25;6251148;28;20508;-80
2022/07/14 01:30:14;;;;;;;4.82;0.80;;;;;;;15.77;100.00;101751.44;6250697;28;20042;-80
2022/07/14 01:33:15;;;;;;;5.80;0.90;;;;;;;15.70;100.00;101758.88;6250538;28;20508;-79
2022/07/14 01:36:18;;;;;;;11.00;1.95;;;;;;;15.63;100.00;101754.88;6250767;28;20136;-81
2022/07/14 01:39:19;;;;;;;2.72;0.93;;;;;;;15.60;100.00;101762.13;6250953;28;20053;-81
2022/07/14 01:42:21;;;;;;;7.80;1.48;;;;;;;15.56;100.00;101766.75;6250493;28;20413;-80
2022/07/14 01:45:22;;;;;;;5.32;1.02;;;;;;;15.41;100.00;101759.69;6250599;28;20045;-80
2022/07/14 01:48:23;;;;;;;6.00;0.93;;;;;;;15.31;100.00;101758.53;6250711;28;20053;-81
2022/07/14 01:51:26;;;;;;;3.67;1.00;;;;;;;15.39;100.00;101764.22;6250343;28;20516;-80
2022/07/14 01:54:27;;;;;;;5.05;0.90;;;;;;;15.36;100.00;101767.06;6250281;28;20618;-80
2022/07/14 01:57:28;;;;;;;4.53;1.25;;;;;;;15.25;100.00;101758.84;6250448;28;20046;-80
2022/07/14 02:00:30;;;;;;;2.45;0.95;;;;;;;15.16;100.00;101760.22;6250068;28;20479;-80
2022/07/14 02:03:31;;;;;;;6.10;1.20;;;;;;;15.17;100.00;101759.28;6250482;28;20053;-80
2022/07/14 02:06:35;;;;;;;2.28;0.82;;;;;;;15.25;100.00;101751.75;6249890;28;20060;-80
2022/07/14 02:12:55;;;;;;;3.42;1.02;;;;;;;15.26;100.00;101764.09;6250074;28;20136;-80
2022/07/14 02:15:56;;;;;;;7.40;1.02;;;;;;;15.33;100.00;101767.22;6248243;28;20041;-80
2022/07/14 02:18:58;;;;;;;8.43;0.98;;;;;;;15.30;100.00;101773.53;6250170;28;20049;-80
2022/07/14 02:22:01;;;;;;;4.53;1.20;;;;;;;15.14;100.00;101765.63;6249356;28;20053;-80
2022/07/14 02:25:02;;;;;;;2.45;0.70;;;;;;;15.13;100.00;101771.84;6249224;28;20068;-80
2022/07/14 02:28:04;;;;;;;3.17;1.00;;;;;;;15.18;100.00;101766.31;6249731;28;20524;-80
2022/07/14 02:31:05;;;;;;;2.15;0.90;;;;;;;15.22;100.00;101768.69;6249517;28;20065;-80
2022/07/14 02:34:07;;;;;;;5.75;1.55;;;;;;;15.19;100.00;101775.94;6248735;28;20052;-81
2022/07/14 02:37:09;;;;;;;3.60;0.80;;;;;;;15.17;100.00;101772.50;6249628;28;20072;-80
2022/07/14 02:40:12;;;;;;;2.58;1.10;;;;;;;15.17;100.00;101772.50;6248923;28;20045;-80
2022/07/14 02:43:13;;;;;;;4.47;0.80;;;;;;;15.13;100.00;101771.00;6249546;28;20042;-80
2022/07/14 02:46:15;;;;;;;4.93;1.15;;;;;;;14.94;100.00;101769.38;6249059;28;20485;-80
2022/07/14 02:49:17;;;;;;;3.65;0.98;;;;;;;14.96;100.00;101772.78;6249375;28;20045;-80
2022/07/14 02:52:19;;;;;;;3.50;1.58;;;;;;;14.98;100.00;101775.34;6248926;28;20050;-80
2022/07/14 02:55:21;;;;;;;9.43;0.93;;;;;;;14.98;100.00;101770.03;6249165;28;20049;-80
2022/07/14 02:58:23;;;;;;;6.63;0.77;;;;;;;14.97;100.00;101766.53;6249140;28;20053;-79
2022/07/14 03:01:25;;;;;;;6.50;1.27;;;;;;;14.98;100.00;101770.03;6248945;28;20140;-79
2022/07/14 03:04:26;;;;;;;3.17;1.00;;;;;;;14.93;100.00;101762.34;6247115;28;20389;-80
2022/07/14 03:07:29;;;;;;;5.20;0.95;;;;;;;14.87;100.00;101756.56;6233124;28;20053;-81
2022/07/14 03:10:30;;;;;;;3.40;1.10;;;;;;;14.82;100.00;101755.97;6224083;28;20057;-80
2022/07/14 03:13:32;;;;;;;3.38;0.73;;;;;;;14.78;100.00;101752.63;6223814;28;20422;-80
2022/07/14 03:16:33;;;;;;;4.43;0.90;;;;;;;14.69;100.00;101759.28;6223973;28;20065;-80
2022/07/14 03:19:34;;;;;;;2.17;0.95;;;;;;;14.62;100.00;101760.53;6230201;28;20596;-80
2022/07/14 03:22:37;;;;;;;5.53;1.17;;;;;;;14.57;100.00;101759.06;6248053;28;20053;-80
2022/07/14 03:25:42;;;;;;;7.57;1.65;;;;;;;14.52;100.00;101761.13;6248192;28;20049;-80
2022/07/14 03:28:44;;;;;;;3.00;1.30;;;;;;;14.47;100.00;101770.13;6248592;28;20512;-80
2022/07/14 03:31:45;;;;;;;2.60;1.15;;;;;;;14.44;100.00;101766.78;6248157;28;20049;-80
2022/07/14 03:34:46;;;;;;;6.90;1.48;;;;;;;14.39;100.00;101766.16;6248041;28;20049;-80
2022/07/14 03:37:49;;;;;;;4.03;1.17;;;;;;;14.35;100.00;101764.63;6248254;28;20053;-80
2022/07/14 03:40:50;;;;;;;5.13;2.00;;;;;;;14.33;100.00;101770.00;6247843;28;20045;-81
2022/07/14 03:43:52;;;;;;;2.72;0.93;;;;;;;14.35;100.00;101765.50;6247721;28;20057;-80
2022/07/14 03:46:53;;;;;;;2.38;1.10;;;;;;;14.36;100.00;101766.34;6246986;28;20053;-80
2022/07/14 03:49:54;;;;;;;7.85;1.10;;;;;;;14.34;100.00;101781.44;6247205;28;20133;-80
2022/07/14 03:52:57;;;;;;;9.57;1.17;;;;;;;14.37;100.00;101782.13;6248127;28;20049;-80
2022/07/14 03:55:59;;;;;;;8.50;1.30;;;;;;;14.36;100.00;101787.50;6247555;28;20054;-79
2022/07/14 03:59:00;;;;;;;1.25;0.95;;;;;;;14.32;100.00;101789.44;6247206;28;20053;-80
2022/07/14 04:02:02;;;;;;;5.25;1.05;;;;;;;14.30;100.00;101786.00;6247238;28;20045;-80
2022/07/14 04:05:03;;;;;;;2.42;1.15;;;;;;;14.27;100.00;101794.13;6248124;28;20459;-81
2022/07/14 04:08:06;;;;;;;2.15;0.88;;;;;;;14.25;100.00;101789.84;6247628;28;20045;-80
2022/07/14 04:11:07;;;;;;;2.42;0.93;;;;;;;14.23;100.00;101786.44;6247454;28;20046;-81
2022/07/14 04:14:09;;;;;;;7.15;1.42;;;;;;;14.21;100.00;101781.19;6246806;28;20416;-80
2022/07/14 04:17:10;;;;;;;5.07;1.42;;;;;;;14.23;100.00;101783.78;6247226;28;20122;-80
2022/07/14 04:20:12;;;;;;;3.15;1.50;;;;;;;14.20;100.00;101774.22;6246887;28;20062;-80
2022/07/14 04:23:15;;;;;;;6.75;1.17;;;;;;;14.23;100.00;101784.63;6247417;28;20056;-80
2022/07/14 04:26:17;;;;;;;6.13;1.77;;;;;;;14.26;100.00;101787.13;6247045;28;20049;-80
2022/07/14 04:29:18;;;;;;;3.50;1.35;;;;;;;14.30;100.00;101778.06;6247105;28;20053;-80
2022/07/14 04:32:20;;;;;;;6.43;1.50;;;;;;;14.27;100.00;101788.00;6246676;28;20048;-80
2022/07/14 04:35:21;;;;;;;9.52;1.63;;;;;;;14.13;100.00;101786.06;6246704;28;20393;-79
2022/07/14 04:38:25;;;;;;;3.85;1.48;;;;;;;14.16;100.00;101781.44;6246589;28;20057;-80
2022/07/14 04:41:26;;;;;;;4.78;1.70;;;;;;;14.19;100.00;101780.44;6246927;28;20199;-80
2022/07/14 04:44:28;;;;;;;4.20;1.55;;;;;;;14.24;100.00;101793.41;6246577;28;20073;-80
2022/07/14 04:47:29;;;;;;;5.40;1.40;;;;;;;14.24;100.00;101796.06;6247209;28;20054;-80
2022/07/14 04:53:50;;;;;;;5.77;1.80;;;;;;;14.26;100.00;101783.59;6246176;28;20062;-70
2022/07/14 04:56:52;;;;;;;6.80;1.23;;;;;;;14.27;100.00;101777.41;6246896;28;20049;-70
2022/07/14 04:59:53;;;;;;;5.57;1.45;;;;;;;14.30;100.00;101783.38;6251547;28;20053;-70
2022/07/14 05:02:55;;;;;;;2.75;1.13;;;;;;;14.36;100.00;101779.56;6251288;28;20056;-70
2022/07/14 05:05:56;;;;;;;4.25;1.10;;;;;;;14.37;100.00;101775.97;6231397;28;20525;-70
2022/07/14 05:08:59;;;;;;;8.30;1.88;;;;;;;14.43;100.00;101780.94;6226778;28;20045;-70
2022/07/14 05:12:01;;;;;;;1.67;1.20;;;;;;;14.50;100.00;101785.00;6226285;28;20054;-70
2022/07/14 05:15:03;;;;;;;4.93;0.93;;;;;;;14.53;100.00;101784.81;6226517;28;20452;-70
2022/07/14 05:18:04;;;;;;;2.05;0.70;;;;;;;14.60;100.00;101788.88;6226475;28;20637;-70
2022/07/14 05:21:06;;;;;;;5.45;1.25;;;;;;;14.60;100.00;101782.72;6226534;28;20054;-70
2022/07/14 05:24:09;;;;;;;1.58;0.60;;;;;;;14.67;100.00;101782.31;6226167;28;20096;-70
2022/07/14 05:27:11;;;;;;;3.42;0.98;;;;;;;14.64;100.00;101792.22;6226491;28;20046;-70
2022/07/14 05:30:13;;;;;;;2.65;0.70;;;;;;;14.75;100.00;101781.03;6227001;28;20058;-70
2022/07/14 05:33:14;;;;;;;6.80;1.50;;;;;;;14.67;100.00;101779.69;6226353;28;20057;-70
2022/07/14 05:36:16;;;;;;;4.32;0.80;;;;;;;14.62;100.00;101783.47;6225824;28;20530;-70
2022/07/14 05:39:18;;;;;;;3.25;1.00;;;;;;;14.61;100.00;101785.28;6226245;28;20045;-70
2022/07/14 05:42:20;;;;;;;2.83;1.02;;;;;;;14.66;100.00;101777.09;6225877;28;20061;-70
2022/07/14 05:45:21;;;;;;;3.55;0.80;;;;;;;14.69;100.00;101780.44;6226094;28;20053;-70
2022/07/14 05:48:23;;;;;;;1.42;0.73;;;;;;;14.71;100.00;101778.53;6225859;28;20053;-70
2022/07/14 05:51:24;;;;;;;4.63;2.42;;;;;;;14.80;100.00;101766.63;6225281;28;20053;-70
2022/07/14 05:54:26;;;;;;;3.90;0.90;;;;;;;14.87;100.00;101767.16;6226728;28;20038;-70
2022/07/14 05:57:28;;;;;;;1.05;0.60;;;;;;;14.91;100.00;101764.25;6225474;28;20060;-70
2022/07/14 06:00:29;;;;;;;1.00;0.70;;;;;;;14.93;100.00;101769.44;6246895;28;20045;-70
2022/07/14 06:03:31;;;;;;;4.30;1.20;;;;;;;14.97;100.00;101768.34;6249639;28;20045;-70
2022/07/14 06:06:32;;;;;;;5.35;1.08;;;;;;;15.08;100.00;101765.97;6249850;28;20046;-70
2022/07/14 06:09:37;;;;;;;2.00;0.90;;;;;;;15.12;100.00;101770.13;6248768;28;20048;-70
2022/07/14 06:12:38;;;;;;;3.42;0.65;;;;;;;15.12;98.23;101772.78;6240756;28;20037;-70
2022/07/14 06:15:40;;;;;;;1.85;0.60;;;;;;;15.13;97.69;101771.84;6241609;28;20081;-70
2022/07/14 06:18:41;;;;;;;4.32;0.75;;;;;;;15.17;98.79;101777.81;6249528;28;20057;-70
2022/07/14 06:21:43;;;;;;;4.13;0.85;;;;;;;15.32;99.17;101781.41;6231789;28;20097;-70
2022/07/14 06:24:45;;;;;;;2.30;0.80;;;;;;;15.47;97.52;101777.88;6228930;28;20051;-71
2022/07/14 06:27:47;;;;;;;4.13;0.50;;;;;;;15.45;96.27;101771.81;6249516;28;20448;-70
2022/07/14 06:30:48;;;;;;;0.30;0.25;;;;;;;15.43;93.14;101777.19;6249046;28;20056;-71
2022/07/14 06:33:49;;;;;;;4.03;0.95;;;;;;;15.47;94.11;101768.13;6249362;28;20060;-70
2022/07/14 06:36:51;;;;;;;1.33;0.47;;;;;;;15.58;94.88;101764.88;6249068;28;20452;-71
2022/07/14 06:39:54;;;;;;;3.88;0.65;;;;;;;15.68;92.48;101765.22;6249206;28;20049;-71
2022/07/14 06:42:55;;;;;;;1.83;0.57;;;;;;;15.75;91.74;101757.75;6248985;28;20057;-71
2022/07/14 06:45:56;;;;;;;4.55;0.45;;;;;;;15.80;89.50;101760.97;6240986;28;20068;-71
2022/07/14 06:48:58;;;;;;;2.03;0.80;;;;;;;15.77;89.07;101763.84;6235042;28;20056;-71
2022/07/14 06:51:59;;;;;;;2.20;0.50;;;;;;;15.79;89.78;101769.88;6234240;28;20045;-71
2022/07/14 06:55:03;;;;;;;3.90;0.98;;;;;;;15.82;89.20;101767.91;6233033;28;20046;-71
2022/07/14 06:58:04;;;;;;;1.85;0.57;;;;;;;15.85;89.33;101756.25;6237092;28;20045;-71
2022/07/14 07:01:06;;;;;;;1.00;0.30;;;;;;;15.90;87.64;101755.06;6248551;28;20049;-71
2022/07/14 07:04:07;;;;;;;4.03;0.50;;;;;;;15.98;87.91;101762.53;6248461;28;20053;-71
2022/07/14 07:07:08;;;;;;;0.50;0.45;;;;;;;16.01;88.07;101749.09;6248662;28;20052;-69
2022/07/14 07:10:11;;;;;;;2.85;0.70;;;;;;;16.04;87.03;101748.09;6247626;28;20045;-71
2022/07/14 07:13:12;;;;;;;11.25;2.05;;;;;;;16.04;86.93;101751.59;6224540;28;20053;-70
2022/07/14 07:16:13;;;;;;;0.57;0.43;;;;;;;16.01;85.81;101751.75;6223426;28;20049;-71
2022/07/14 07:19:16;;;;;;;2.13;0.55;;;;;;;15.98;85.86;101752.78;6223865;28;20052;-71
2022/07/14 07:22:18;;;;;;;0.50;0.30;;;;;;;16.00;85.71;101752.72;6225830;28;20054;-69
2022/07/14 07:25:21;;;;;;;3.45;0.63;;;;;;;16.15;84.30;101748.28;6239728;28;20508;-71
2022/07/14 07:28:22;;;;;;;1.55;0.68;;;;;;;16.30;82.87;101738.53;6248217;28;20053;-68
2022/07/14 07:31:23;;;;;;;2.70;0.50;;;;;;;16.49;81.10;101750.56;6247550;28;20401;-71
2022/07/14 07:34:26;;;;;;;5.75;0.50;;;;;;;16.48;78.25;101750.66;6247838;28;20050;-71
2022/07/14 07:37:28;;;;;;;4.07;0.40;;;;;;;16.41;79.38;101755.50;6243345;28;20045;-70
2022/07/14 07:40:31;;;;;;;1.83;1.05;;;;;;;16.37;80.83;101750.47;6241494;28;20049;-68
2022/07/14 07:43:32;;;;;;;3.28;0.50;;;;;;;16.31;81.53;101746.41;6235909;28;20052;-71
2022/07/14 07:46:34;;;;;;;5.10;0.73;;;;;;;16.26;78.78;101751.16;6247574;28;20386;-71
2022/07/14 07:49:35;;;;;;;2.42;0.80;;;;;;;16.19;79.51;101755.94;6247224;28;20598;-71
2022/07/14 07:52:37;;;;;;;3.08;0.88;;;;;;;16.16;80.00;101745.53;6247183;28;20056;-71
2022/07/14 07:55:40;;;;;;;1.33;0.43;;;;;;;16.17;79.31;101744.59;6246846;28;20041;-69
2022/07/14 07:58:41;;;;;;;1.85;0.77;;;;;;;16.23;75.95;101738.06;6228898;28;20045;-68
2022/07/14 08:01:42;;;;;;;1.38;0.55;;;;;;;16.29;71.58;101724.41;6241558;28;20184;-68
2022/07/14 08:04:44;;;;;;;3.03;0.60;;;;;;;16.54;72.67;101715.78;6243449;28;20049;-67
2022/07/14 08:07:46;;;;;;;1.35;0.63;;;;;;;16.72;71.51;101714.66;6246763;28;20068;-69
2022/07/14 08:10:48;;;;;;;3.80;0.70;;;;;;;16.90;72.62;101704.66;6246448;28;20050;-69
2022/07/14 08:13:50;;;;;;;0.70;0.70;;;;;;;17.06;70.79;101707.16;6247008;28;20049;-69
2022/07/14 08:16:51;;;;;;;1.27;0.70;;;;;;;16.95;69.71;101705.22;6246788;28;20073;-69
2022/07/14 08:19:52;;;;;;;2.17;0.73;;;;;;;16.89;68.42;101702.09;6244343;28;20507;-70
2022/07/14 08:22:54;;;;;;;1.10;0.70;;;;;;;16.76;66.62;101702.06;6229892;28;20502;-70
2022/07/14 08:25:57;;;;;;;0.77;0.63;;;;;;;16.83;66.04;101682.09;6246521;28;20049;-70
2022/07/14 08:28:59;;;;;;;2.78;0.88;;;;;;;16.92;65.89;101683.31;6235584;28;20050;-70
2022/07/14 08:32:00;;;;;;;0.65;0.63;;;;;;;17.07;66.69;101673.47;6241599;28;20041;-70
2022/07/14 08:35:02;;;;;;;2.78;0.75;;;;;;;17.21;65.36;101673.41;6246330;28;20050;-69
2022/07/14 08:38:04;;;;;;;1.25;0.65;;;;;;;17.26;64.00;101674.00;6246100;28;20088;-70
2022/07/14 08:41:08;;;;;;;0.70;0.65;;;;;;;17.23;65.95;101672.38;6244109;28;20421;-70
2022/07/14 08:44:09;;;;;;;3.53;1.13;;;;;;;17.22;66.04;101668.03;6246311;28;20049;-68
2022/07/14 08:47:11;;;;;;;2.30;0.93;;;;;;;17.29;68.03;101680.88;6247238;28;20056;-69
2022/07/14 08:50:14;;;;;;;1.73;1.13;;;;;;;17.31;66.42;101673.69;6245796;28;20447;-69
2022/07/14 08:53:17;;;;;;;3.63;1.73;;;;;;;17.34;66.70;101676.97;6236783;28;20045;-69
2022/07/14 08:56:20;;;;;;;1.58;0.93;;;;;;;17.47;66.41;101677.84;6246204;28;20049;-71
2022/07/14 08:59:22;;;;;;;3.05;1.40;;;;;;;17.57;65.76;101666.59;6246460;28;20055;-71
2022/07/14 09:02:23;;;;;;;1.50;0.88;;;;;;;17.62;64.65;101668.00;6245942;28;20060;-70
2022/07/14 09:05:24;;;;;;;2.55;1.20;;;;;;;17.70;62.71;101668.31;6246425;28;20046;-71
2022/07/14 09:08:26;;;;;;;3.88;1.10;;;;;;;17.69;63.69;101665.75;6245656;28;20046;-70
2022/07/14 09:11:29;;;;;;;1.10;0.80;;;;;;;17.72;63.10;101658.44;6245922;28;20045;-70
2022/07/14 09:15:44;;;;;;;2.08;0.88;;;;;;;17.85;62.66;101660.25;6246087;28;20535;-70
2022/07/14 09:17:57;;;;;;;0.70;0.70;;;;;;;18.00;63.31;101657.38;6242423;28;20060;-71
2022/07/14 09:20:58;;;;;;;1.00;0.90;;;;;;;18.11;62.78;101658.44;6242423;28;20056;-70
2022/07/14 09:24:00;;;;;;;1.10;0.80;;;;;;;18.08;64.33;101659.53;6245599;28;20052;-71
2022/07/14 09:27:03;;;;;;;1.17;0.55;;;;;;;17.96;63.18;101652.41;6246151;28;20045;-71
2022/07/14 09:30:06;;;;;;;2.80;0.52;;;;;;;18.00;62.41;101652.06;6245878;28;20049;-70
2022/07/14 09:33:08;;;;;;;0.45;0.30;;;;;;;18.09;61.63;101647.06;6246161;28;20049;-70
2022/07/14 09:36:20;;;;;;;2.47;0.35;;;;;;;18.14;60.77;101640.47;6245629;28;20058;-70
2022/07/14 09:39:25;;;;;;;0.55;0.40;;;;;;;18.06;61.35;101645.47;6246161;28;20052;-70
2022/07/14 09:42:50;;;;;;;2.15;0.50;;;;;;;18.17;58.91;101647.38;6244304;28;20061;-70
2022/07/14 09:45:51;;;;;;;2.50;0.40;;;;;;;18.30;58.90;101639.34;6224814;28;20042;-70
2022/07/14 09:49:08;;;;;;;3.90;0.50;;;;;;;18.39;58.39;101628.91;6225682;28;20056;-71
2022/07/14 09:52:09;;;;;;;0.52;0.28;;;;;;;18.50;58.91;101636.13;6225555;28;20057;-72
2022/07/14 09:55:21;;;;;;;1.85;0.52;;;;;;;18.71;59.28;101631.94;6225310;28;20453;-73
2022/07/14 09:58:26;;;;;;;1.40;0.52;;;;;;;18.86;59.48;101634.44;6225722;28;20136;-73
2022/07/14 10:01:27;;;;;;;1.80;0.40;;;;;;;18.81;58.05;101626.78;6225303;28;20050;-73
2022/07/14 10:04:29;;;;;;;1.63;0.40;;;;;;;18.74;57.64;101620.19;6225203;28;20441;-74
2022/07/14 10:07:34;;;;;;;5.18;0.52;;;;;;;18.66;57.14;101622.53;6225394;28;20053;-73
2022/07/14 10:10:36;;;;;;;1.38;0.43;;;;;;;18.74;57.01;101626.38;6246392;28;20045;-71
2022/07/14 10:13:40;;;;;;;2.17;0.77;;;;;;;18.88;57.07;101619.16;6249721;28;20049;-71
2022/07/14 10:16:42;;;;;;;0.50;0.47;;;;;;;18.93;57.37;101607.19;6249836;28;20049;-73
2022/07/14 10:19:45;;;;;;;1.02;0.32;;;;;;;19.13;56.76;101621.72;6249387;28;20061;-73
2022/07/14 10:22:46;;;;;;;1.23;0.70;;;;;;;19.12;56.63;101619.13;6248160;28;20057;-73
2022/07/14 10:25:49;;;;;;;2.83;0.45;;;;;;;19.10;54.91;101610.41;6249419;28;20045;-73
2022/07/14 10:28:52;;;;;;;1.98;0.55;;;;;;;19.24;55.74;101611.06;6249534;28;20497;-73
2022/07/14 10:32:05;;;;;;;0.55;0.55;;;;;;;19.32;53.77;101606.97;6243511;28;20049;-73
2022/07/14 10:35:27;;;;;;;0.88;0.32;;;;;;;19.40;54.54;101613.44;6246881;28;20045;-73
2022/07/14 10:38:40;;;;;;;5.25;0.50;;;;;;;19.57;53.20;101611.25;6249073;28;20413;-73
2022/07/14 10:41:56;;;;;;;1.98;0.50;;;;;;;19.68;52.00;101612.16;6249192;28;20076;-73
2022/07/14 10:45:01;;;;;;;1.38;0.80;;;;;;;19.51;51.63;101608.09;6248783;28;20045;-73
2022/07/14 10:48:05;;;;;;;1.75;0.60;;;;;;;19.44;53.29;101601.56;6249182;28;20045;-73
2022/07/14 10:51:17;;;;;;;0.82;0.43;;;;;;;19.70;52.76;101604.03;6268668;23;20053;-83
2022/07/14 10:54:24;;;;;;;0.60;0.60;;;;;;;19.94;52.53;101604.78;6249671;28;20132;-82
2022/07/14 10:57:25;;;;;;;2.63;1.27;;;;;;;19.93;50.81;101602.22;6231621;28;20045;-81
2022/07/14 11:00:58;;;;;;;2.17;0.75;;;;;;;19.75;52.04;101600.03;6249892;28;20057;-82
2022/07/14 11:04:00;;;;;;;3.17;0.80;;;;;;;19.98;51.14;101581.34;6224698;28;20076;-81
2022/07/14 11:07:35;;;;;;;2.35;0.70;;;;;;;20.20;50.66;101581.34;6224499;28;20414;-81
2022/07/14 11:11:10;;;;;;;3.30;0.90;;;;;;;20.27;52.26;101592.38;6224774;28;20057;-82
2022/07/14 11:14:13;;;;;;;2.42;0.75;;;;;;;20.10;52.47;101592.88;6224155;28;20411;-81
2022/07/14 11:17:41;;;;;;;4.43;1.55;;;;;;;20.27;51.82;101597.72;6224309;28;20405;-80
2022/07/14 11:20:50;;;;;;;2.92;0.90;;;;;;;20.69;49.11;101598.72;6225085;28;20050;-79
2022/07/14 11:23:54;;;;;;;5.53;1.10;;;;;;;20.90;46.54;101590.78;6217263;28;20486;-80
2022/07/14 11:26:55;;;;;;;1.02;0.73;;;;;;;20.59;47.91;101592.47;6200011;28;20514;-81
2022/07/14 11:29:58;;;;;;;4.38;1.15;;;;;;;20.42;49.34;101592.94;6200092;28;20054;-80
2022/07/14 11:33:04;;;;;;;1.45;0.60;;;;;;;20.52;50.04;101596.59;6199618;28;20073;-81
2022/07/14 11:36:20;;;;;;;0.88;0.50;;;;;;;20.65;48.19;101596.44;6199549;28;20058;-82
2022/07/14 11:39:23;;;;;;;0.95;0.60;;;;;;;20.64;47.29;101587.59;6199718;28;20050;-81
2022/07/14 11:42:24;;;;;;;1.05;0.43;;;;;;;20.59;46.82;101581.78;6199510;28;20486;-81
2022/07/14 11:45:53;;;;;;;1.08;0.52;;;;;;;20.64;46.67;101581.41;6199567;28;20046;-81
2022/07/14 11:48:56;;;;;;;1.70;0.65;;;;;;;20.42;46.53;101571.59;6200402;28;20050;-82
2022/07/14 11:51:58;;;;;;;2.05;0.95;;;;;;;20.32;48.39;101571.50;6198788;28;20085;-82
2022/07/14 11:55:01;;;;;;;1.10;0.57;;;;;;;20.37;48.07;101568.44;6199169;28;20056;-81
2022/07/14 11:58:03;;;;;;;0.70;0.70;;;;;;;20.36;48.10;101567.59;6199292;28;20053;-80
2022/07/14 12:01:04;;;;;;;1.98;0.50;;;;;;;20.30;48.60;101570.75;6199449;28;20150;-82
2022/07/14 12:04:09;;;;;;;4.97;1.00;;;;;;;20.37;48.46;101577.31;6198828;28;20058;-80
2022/07/14 12:07:10;;;;;;;2.13;0.82;;;;;;;20.27;48.02;101569.19;6198979;28;20058;-82
2022/07/14 12:10:13;;;;;;;0.57;0.40;;;;;;;20.30;49.32;101559.25;6198685;28;20050;-83
2022/07/14 12:13:14;;;;;;;3.67;0.90;;;;;;;20.45;48.39;101568.69;6199211;28;20062;-81
2022/07/14 12:16:16;;;;;;;2.60;0.70;;;;;;;20.37;48.25;101568.44;6199685;28;20042;-81
2022/07/14 12:19:28;;;;;;;0.60;0.60;;;;;;;20.22;48.22;101576.75;6198739;28;20054;-81
2022/07/14 12:22:29;;;;;;;4.25;0.80;;;;;;;20.22;48.00;101566.06;6210024;28;20052;-79
2022/07/14 12:25:33;;;;;;;2.70;0.63;;;;;;;20.13;48.05;101573.97;6222769;28;20045;-80
2022/07/14 12:28:36;;;;;;;2.15;0.73;;;;;;;20.20;48.26;101559.13;6225240;28;20046;-79
2022/07/14 12:31:40;;;;;;;3.13;0.70;;;;;;;20.23;48.71;101554.41;6214121;28;20050;-79
2022/07/14 12:34:44;;;;;;;1.20;0.50;;;;;;;20.18;48.53;101551.25;6216771;28;20048;-80
2022/07/14 12:37:46;;;;;;;4.68;1.23;;;;;;;20.15;48.77;101550.66;6223913;28;20042;-80
2022/07/14 12:40:49;;;;;;;0.70;0.70;;;;;;;20.14;47.49;101555.16;6213021;28;20223;-78
2022/07/14 12:43:51;;;;;;;1.83;0.90;;;;;;;20.11;47.56;101551.88;6223639;28;20049;-79
2022/07/14 12:47:09;;;;;;;2.42;1.17;;;;;;;20.09;48.18;101551.16;6222885;28;20490;-80
2022/07/14 12:50:20;;;;;;;2.47;0.75;;;;;;;20.19;48.92;101547.63;6222805;28;20456;-80
2022/07/14 12:53:21;;;;;;;0.98;0.93;;;;;;;20.27;47.98;101555.00;6223164;28;20140;-82
2022/07/14 12:56:23;;;;;;;3.85;0.50;;;;;;;20.59;49.27;101541.72;6223335;28;20077;-81
2022/07/14 12:59:31;;;;;;;1.92;0.70;;;;;;;20.73;47.20;101545.91;6223169;28;20088;-80
2022/07/14 13:02:33;;;;;;;1.87;0.87;;;;;;;20.70;47.05;101559.50;6223060;28;20046;-81
2022/07/14 13:05:37;;;;;;;0.93;0.50;;;;;;;20.75;48.35;101550.13;6222840;28;20057;-80
2022/07/14 13:08:40;;;;;;;0.70;0.38;;;;;;;21.14;47.50;101550.44;6205546;28;20057;-78
2022/07/14 13:11:42;;;;;;;0.73;0.60;;;;;;;20.91;46.76;101547.03;6198836;28;20061;-77
2022/07/14 13:14:56;;;;;;;0.90;0.52;;;;;;;20.85;47.73;101554.69;6198851;28;20050;-81
2022/07/14 13:17:59;;;;;;;0.63;0.50;;;;;;;21.11;47.31;101563.19;6199037;28;20054;-80
2022/07/14 13:21:02;;;;;;;0.52;0.40;;;;;;;20.90;46.76;101556.03;6202750;28;20066;-80
2022/07/14 13:24:12;;;;;;;1.30;0.70;;;;;;;20.85;48.66;101555.56;6202642;28;20050;-79
2022/07/14 13:27:16;;;;;;;1.17;0.68;;;;;;;21.09;47.03;101558.00;6203203;28;20050;-78
2022/07/14 13:30:17;;;;;;;1.48;0.57;;;;;;;21.03;47.20;101559.38;6203831;28;20054;-81
2022/07/14 13:33:19;;;;;;;0.70;0.50;;;;;;;20.90;46.70;101555.19;6203076;28;20058;-81
2022/07/14 13:36:21;;;;;;;0.38;0.38;;;;;;;20.87;47.82;101571.47;6203489;28;20046;-74
2022/07/14 13:39:23;;;;;;;1.42;0.40;;;;;;;20.66;47.87;101563.41;6202768;28;20054;-79
2022/07/14 13:42:24;;;;;;;1.02;0.40;;;;;;;20.62;49.13;101564.63;6204937;28;20068;-79
2022/07/14 13:45:25;;;;;;;3.75;0.55;;;;;;;20.78;48.68;101563.25;6214749;28;20050;-79
2022/07/14 13:48:27;;;;;;;2.45;0.77;;;;;;;20.83;48.54;101557.50;6213315;28;20050;-79
2022/07/14 13:54:49;;;;;;;1.40;0.55;;;;;;;21.12;45.83;101568.44;6226821;28;20497;-77
2022/07/14 13:57:50;;;;;;;1.50;0.22;;;;;;;21.15;46.49;101564.63;6230158;28;20049;-78
2022/07/14 14:00:51;;;;;;;0.90;0.25;;;;;;;21.75;43.39;101566.53;6229327;28;20504;-78
2022/07/14 14:03:54;;;;;;;0.82;0.40;;;;;;;21.79;42.64;101565.28;6226660;28;20042;-80
2022/07/14 14:06:57;;;;;;;1.60;0.70;;;;;;;21.38;44.18;101554.69;6224317;28;20123;-81
2022/07/14 14:09:58;;;;;;;1.75;0.30;;;;;;;21.20;44.48;101557.91;6226410;28;20060;-81
2022/07/14 14:12:59;;;;;;;5.47;1.48;;;;;;;21.06;44.39;101570.75;6226366;28;20456;-79
2022/07/14 14:16:02;;;;;;;1.60;0.60;;;;;;;21.26;45.10;101570.78;6228384;28;20057;-78
2022/07/14 14:19:04;;;;;;;1.70;0.57;;;;;;;21.49;45.03;101563.50;6226196;28;20418;-79